createdAt,value
2017-08-14T00:00:54.347Z,14.90
2017-08-14T00:03:21.866Z,14.90
2017-08-14T00:05:49.402Z,14.90
2017-08-14T00:08:16.921Z,14.90
2017-08-14T00:10:44.458Z,14.80
2017-08-14T00:13:12.749Z,14.60
2017-08-14T00:15:41.062Z,14.50
2017-08-14T00:18:08.582Z,14.50
2017-08-14T00:20:36.869Z,14.50
2017-08-14T00:23:04.411Z,14.50
2017-08-14T00:25:32.699Z,14.40
2017-08-14T00:28:01.009Z,14.40
2017-08-14T00:30:28.522Z,14.40
2017-08-14T00:32:56.066Z,14.40
2017-08-14T00:35:23.591Z,14.50
2017-08-14T00:37:51.130Z,14.50
2017-08-14T00:40:19.423Z,14.50
2017-08-14T00:42:47.743Z,14.40
2017-08-14T00:45:15.268Z,14.40
2017-08-14T00:47:42.792Z,14.50
2017-08-14T00:50:10.326Z,14.50
2017-08-14T00:52:37.856Z,14.50
2017-08-14T00:55:05.395Z,14.50
2017-08-14T00:57:33.674Z,14.40
2017-08-14T01:00:01.984Z,14.40
2017-08-14T01:02:29.507Z,14.40
2017-08-14T01:04:57.820Z,14.30
2017-08-14T01:07:25.341Z,14.30
2017-08-14T01:09:53.631Z,14.30
2017-08-14T01:12:21.174Z,14.30
2017-08-14T01:14:49.458Z,14.30
2017-08-14T01:17:16.999Z,14.30
2017-08-14T01:19:44.522Z,14.30
2017-08-14T01:22:12.113Z,14.30
2017-08-14T01:24:39.635Z,14.20
2017-08-14T01:27:07.175Z,14.20
2017-08-14T01:29:34.698Z,14.10
2017-08-14T01:32:02.249Z,14.10
2017-08-14T01:34:30.539Z,14.00
2017-08-14T01:36:58.059Z,14.00
2017-08-14T01:39:25.599Z,14.00
2017-08-14T01:41:53.118Z,14.00
2017-08-14T01:44:20.659Z,14.00
2017-08-14T01:46:48.943Z,14.00
2017-08-14T01:49:16.490Z,13.90
2017-08-14T01:51:44.011Z,13.90
2017-08-14T01:54:11.554Z,13.90
2017-08-14T01:56:39.067Z,13.80
2017-08-14T01:59:06.614Z,13.80
2017-08-14T02:01:34.140Z,13.70
2017-08-14T02:04:01.687Z,13.70
2017-08-14T02:06:29.206Z,13.60
2017-08-14T02:08:56.730Z,13.60
2017-08-14T02:11:24.277Z,13.60
2017-08-14T02:13:51.794Z,13.60
2017-08-14T02:16:20.098Z,13.60
2017-08-14T02:18:47.811Z,13.60
2017-08-14T02:21:15.356Z,13.60
2017-08-14T02:23:42.871Z,13.60
2017-08-14T02:26:10.415Z,13.60
2017-08-14T02:28:37.934Z,13.60
2017-08-14T02:31:05.474Z,13.60
2017-08-14T02:33:32.999Z,13.60
2017-08-14T02:36:00.545Z,13.70
2017-08-14T02:38:28.063Z,13.70
2017-08-14T02:40:55.625Z,13.60
2017-08-14T02:43:23.148Z,13.60
2017-08-14T02:45:50.671Z,13.60
2017-08-14T02:48:18.983Z,13.50
2017-08-14T02:50:46.522Z,13.50
2017-08-14T02:53:14.061Z,13.50
2017-08-14T02:55:42.351Z,13.40
2017-08-14T02:58:09.892Z,13.40
2017-08-14T03:00:38.187Z,13.40
2017-08-14T03:03:05.726Z,13.40
2017-08-14T03:05:33.251Z,13.40
2017-08-14T03:08:00.797Z,13.40
2017-08-14T03:10:28.319Z,13.40
2017-08-14T03:12:56.628Z,13.20
2017-08-14T03:15:24.146Z,13.10
2017-08-14T03:17:51.706Z,13.10
2017-08-14T03:20:19.277Z,13.00
2017-08-14T03:22:46.798Z,13.10
2017-08-14T03:25:14.331Z,13.00
2017-08-14T03:27:41.854Z,13.00
2017-08-14T03:30:10.153Z,13.00
2017-08-14T03:32:37.744Z,13.10
2017-08-14T03:35:05.295Z,13.10
2017-08-14T03:37:32.815Z,13.10
2017-08-14T03:40:00.355Z,13.10
2017-08-14T03:42:27.874Z,13.10
2017-08-14T03:44:55.409Z,13.10
2017-08-14T03:47:22.926Z,13.10
2017-08-14T03:49:50.457Z,13.10
2017-08-14T03:52:17.974Z,13.20
2017-08-14T03:54:45.509Z,13.20
2017-08-14T03:57:13.027Z,13.20
2017-08-14T03:59:40.577Z,13.20
2017-08-14T04:02:08.108Z,13.30
2017-08-14T04:04:35.640Z,13.30
2017-08-14T04:07:03.179Z,13.30
2017-08-14T04:09:30.694Z,13.30
2017-08-14T04:11:58.230Z,13.30
2017-08-14T04:14:25.755Z,13.40
2017-08-14T04:16:53.293Z,13.40
2017-08-14T04:19:20.835Z,13.40
2017-08-14T04:21:48.374Z,13.50
2017-08-14T04:24:15.895Z,13.50
2017-08-14T04:26:43.439Z,13.60
2017-08-14T04:29:11.726Z,13.70
2017-08-14T04:31:40.037Z,13.70
2017-08-14T04:34:07.562Z,13.70
2017-08-14T04:36:35.107Z,13.80
2017-08-14T04:39:02.630Z,13.80
2017-08-14T04:41:30.164Z,13.80
2017-08-14T04:43:58.479Z,13.90
2017-08-14T04:46:26.005Z,13.90
2017-08-14T04:48:54.318Z,13.90
2017-08-14T04:51:21.836Z,13.90
2017-08-14T04:53:50.139Z,14.60
2017-08-14T04:56:17.667Z,14.60
2017-08-14T04:58:45.972Z,14.80
2017-08-14T05:01:13.500Z,14.80
2017-08-14T05:03:41.042Z,14.90
2017-08-14T05:06:08.569Z,14.90
2017-08-14T05:08:36.114Z,15.00
2017-08-14T05:11:04.408Z,17.80
2017-08-14T05:13:31.925Z,17.80
2017-08-14T05:15:59.459Z,19.40
2017-08-14T05:18:26.974Z,20.60
2017-08-14T05:20:55.273Z,21.60
2017-08-14T05:23:22.791Z,21.60
2017-08-14T05:25:50.326Z,22.20
2017-08-14T05:28:17.847Z,22.80
2017-08-14T05:30:45.382Z,23.40
2017-08-14T05:33:13.682Z,24.00
2017-08-14T05:35:41.227Z,24.00
2017-08-14T05:38:08.743Z,24.20
2017-08-14T05:40:36.283Z,24.50
2017-08-14T05:43:03.807Z,24.80
2017-08-14T05:45:31.366Z,25.10
2017-08-14T05:47:58.886Z,25.40
2017-08-14T05:50:26.440Z,25.10
2017-08-14T05:52:53.954Z,24.80
2017-08-14T05:55:21.503Z,24.00
2017-08-14T05:57:49.020Z,23.20
2017-08-14T06:00:16.547Z,22.40
2017-08-14T06:02:44.859Z,23.30
2017-08-14T06:05:12.383Z,23.30
2017-08-14T06:07:40.699Z,23.50
2017-08-14T06:10:08.218Z,23.40
2017-08-14T06:12:36.525Z,23.50
2017-08-14T06:15:04.047Z,23.50
2017-08-14T06:17:31.581Z,24.20
2017-08-14T06:19:59.102Z,24.90
2017-08-14T06:22:26.653Z,25.40
2017-08-14T06:24:54.183Z,25.60
2017-08-14T06:27:21.722Z,25.80
2017-08-14T06:29:49.243Z,26.10
2017-08-14T06:32:16.788Z,26.10
2017-08-14T06:34:44.311Z,26.20
2017-08-14T06:37:11.855Z,26.30
2017-08-14T06:39:39.378Z,26.30
2017-08-14T06:42:06.898Z,26.10
2017-08-14T06:44:34.438Z,26.10
2017-08-14T06:47:02.727Z,25.10
2017-08-14T06:49:30.270Z,25.10
2017-08-14T06:51:57.791Z,24.80
2017-08-14T06:54:25.335Z,25.10
2017-08-14T06:59:29.971Z,24.90
2017-08-14T07:01:58.255Z,25.50
2017-08-14T07:04:26.560Z,25.70
2017-08-14T07:06:54.080Z,25.70
2017-08-14T07:09:22.390Z,26.20
2017-08-14T07:11:49.914Z,26.20
2017-08-14T07:14:18.223Z,26.10
2017-08-14T07:16:45.746Z,26.10
2017-08-14T07:19:14.059Z,25.60
2017-08-14T07:21:41.594Z,25.50
2017-08-14T07:24:09.122Z,25.40
2017-08-14T07:26:36.662Z,25.40
2017-08-14T07:29:04.187Z,25.70
2017-08-14T07:31:31.728Z,25.90
2017-08-14T07:33:59.250Z,25.90
2017-08-14T07:36:26.791Z,25.60
2017-08-14T07:38:54.317Z,25.60
2017-08-14T07:41:21.858Z,25.90
2017-08-14T07:43:49.380Z,26.40
2017-08-14T07:46:16.927Z,26.90
2017-08-14T07:48:44.446Z,27.20
2017-08-14T07:51:11.991Z,27.10
2017-08-14T07:53:39.519Z,27.10
2017-08-14T07:56:07.064Z,26.80
2017-08-14T07:58:34.598Z,26.60
2017-08-14T08:01:02.122Z,26.70
2017-08-14T08:03:29.662Z,26.60
2017-08-14T08:05:58.471Z,26.70
2017-08-14T08:08:26.016Z,26.80
2017-08-14T08:10:53.541Z,27.20
2017-08-14T08:13:21.080Z,27.40
2017-08-14T08:15:48.603Z,27.50
2017-08-14T08:18:16.143Z,27.20
2017-08-14T08:20:43.661Z,26.90
2017-08-14T08:23:11.204Z,26.90
2017-08-14T08:25:38.723Z,27.20
2017-08-14T08:28:06.267Z,27.60
2017-08-14T08:30:34.551Z,27.90
2017-08-14T08:33:02.834Z,28.00
2017-08-14T08:35:30.379Z,27.90
2017-08-14T08:37:58.662Z,27.60
2017-08-14T08:40:26.212Z,27.60
2017-08-14T08:42:53.739Z,27.70
2017-08-14T08:45:21.278Z,27.70
2017-08-14T08:47:49.566Z,28.00
2017-08-14T08:50:17.114Z,27.90
2017-08-14T08:52:45.402Z,28.70
2017-08-14T08:55:12.945Z,28.60
2017-08-14T08:57:41.230Z,28.10
2017-08-14T09:00:09.540Z,28.10
2017-08-14T09:02:37.060Z,28.00
2017-08-14T09:05:05.368Z,28.20
2017-08-14T09:07:32.886Z,28.10
2017-08-14T09:10:00.429Z,28.30
2017-08-14T09:12:27.955Z,28.60
2017-08-14T09:14:55.474Z,28.90
2017-08-14T09:17:23.788Z,28.70
2017-08-14T09:19:51.311Z,28.70
2017-08-14T09:22:18.857Z,28.40
2017-08-14T09:24:46.378Z,28.20
2017-08-14T09:27:14.686Z,28.70
2017-08-14T09:29:43.030Z,28.70
2017-08-14T09:32:11.343Z,28.50
2017-08-14T09:34:38.877Z,28.50
2017-08-14T09:37:06.419Z,28.50
2017-08-14T09:39:34.712Z,29.40
2017-08-14T09:42:02.260Z,29.30
2017-08-14T09:44:30.547Z,29.20
2017-08-14T09:46:58.852Z,27.80
2017-08-14T09:49:26.367Z,27.80
2017-08-14T09:51:54.673Z,27.30
2017-08-14T09:54:22.203Z,27.30
2017-08-14T09:56:49.735Z,27.90
2017-08-14T09:59:17.276Z,28.50
2017-08-14T10:01:45.558Z,27.90
2017-08-14T10:04:13.862Z,27.50
2017-08-14T10:06:41.383Z,27.50
2017-08-14T10:09:08.926Z,27.40
2017-08-14T10:11:36.447Z,26.90
2017-08-14T10:14:03.989Z,26.60
2017-08-14T10:16:31.510Z,26.90
2017-08-14T10:18:59.056Z,27.20
2017-08-14T10:21:26.580Z,27.20
2017-08-14T10:23:54.131Z,27.20
2017-08-14T10:26:21.663Z,27.30
2017-08-14T10:28:49.212Z,27.20
2017-08-14T10:31:16.742Z,26.90
2017-08-14T10:33:44.258Z,26.60
2017-08-14T10:36:12.569Z,26.70
2017-08-14T10:38:40.091Z,26.70
2017-08-14T10:41:08.399Z,27.10
2017-08-14T10:43:35.923Z,27.00
2017-08-14T10:46:03.462Z,26.80
2017-08-14T10:48:30.990Z,26.60
2017-08-14T10:50:58.532Z,26.60
2017-08-14T10:53:26.060Z,26.90
2017-08-14T10:55:53.608Z,27.10
2017-08-14T10:58:21.130Z,27.50
2017-08-14T11:00:48.670Z,27.50
2017-08-14T11:03:16.187Z,27.60
2017-08-14T11:05:43.742Z,27.70
2017-08-14T11:08:11.267Z,27.70
2017-08-14T11:10:38.826Z,27.90
2017-08-14T11:13:06.389Z,28.30
2017-08-14T11:15:34.696Z,28.20
2017-08-14T11:18:02.248Z,28.20
2017-08-14T11:20:29.786Z,27.80
2017-08-14T11:22:57.335Z,27.60
2017-08-14T11:25:24.875Z,27.40
2017-08-14T11:27:52.435Z,27.40
2017-08-14T11:30:19.964Z,27.40
2017-08-14T11:32:47.514Z,27.30
2017-08-14T11:35:15.044Z,27.10
2017-08-14T11:37:42.590Z,26.90
2017-08-14T11:40:10.134Z,26.70
2017-08-14T11:42:37.679Z,26.50
2017-08-14T11:45:05.222Z,26.30
2017-08-14T11:47:32.752Z,26.40
2017-08-14T11:50:00.307Z,26.50
2017-08-14T11:52:27.839Z,26.50
2017-08-14T11:54:56.155Z,26.80
2017-08-14T11:57:23.683Z,26.80
2017-08-14T11:59:51.222Z,26.60
2017-08-14T12:02:18.747Z,26.70
2017-08-14T12:04:46.287Z,27.00
2017-08-14T12:07:14.571Z,26.90
2017-08-14T12:09:42.117Z,26.90
2017-08-14T12:12:10.402Z,26.40
2017-08-14T12:14:38.687Z,26.30
2017-08-14T12:17:06.234Z,26.30
2017-08-14T12:19:34.518Z,26.20
2017-08-14T12:22:02.059Z,26.20
2017-08-14T12:24:30.346Z,26.80
2017-08-14T12:26:57.887Z,26.80
2017-08-14T12:29:26.181Z,28.10
2017-08-14T12:31:53.730Z,28.10
2017-08-14T12:34:22.020Z,29.00
2017-08-14T12:36:49.558Z,29.00
2017-08-14T12:39:17.843Z,29.40
2017-08-14T12:41:46.151Z,29.20
2017-08-14T12:44:13.677Z,29.20
2017-08-14T12:46:41.982Z,29.10
2017-08-14T12:49:09.506Z,29.10
2017-08-14T12:51:37.054Z,29.00
2017-08-14T12:54:04.574Z,29.10
2017-08-14T12:56:32.102Z,29.30
2017-08-14T12:59:00.412Z,28.80
2017-08-14T13:01:27.938Z,28.80
2017-08-14T13:03:55.484Z,28.20
2017-08-14T13:06:23.006Z,27.90
2017-08-14T13:08:50.542Z,27.60
2017-08-14T13:11:18.059Z,27.50
2017-08-14T13:13:45.605Z,27.80
2017-08-14T13:16:13.135Z,28.10
2017-08-14T13:18:40.676Z,28.00
2017-08-14T13:21:08.210Z,27.70
2017-08-14T13:23:35.752Z,27.50
2017-08-14T13:26:03.277Z,27.80
2017-08-14T13:28:31.599Z,28.70
2017-08-14T13:30:59.128Z,28.70
2017-08-14T13:33:26.655Z,29.10
2017-08-14T13:35:54.206Z,29.10
2017-08-14T13:38:21.729Z,29.30
2017-08-14T13:40:50.044Z,29.40
2017-08-14T13:43:17.570Z,29.40
2017-08-14T13:45:45.880Z,29.80
2017-08-14T13:48:13.408Z,29.80
2017-08-14T13:50:41.716Z,29.40
2017-08-14T13:53:09.247Z,29.30
2017-08-14T13:55:36.792Z,29.00
2017-08-14T13:58:04.320Z,28.70
2017-08-14T14:00:31.875Z,28.70
2017-08-14T14:02:59.404Z,28.60
2017-08-14T14:05:26.959Z,28.40
2017-08-14T14:07:55.247Z,28.40
2017-08-14T14:10:22.795Z,28.40
2017-08-14T14:12:51.087Z,28.90
2017-08-14T14:15:18.615Z,28.90
2017-08-14T14:17:46.929Z,28.50
2017-08-14T14:20:14.457Z,28.50
2017-08-14T14:22:42.003Z,28.30
2017-08-14T14:25:09.528Z,28.40
2017-08-14T14:27:37.073Z,28.40
2017-08-14T14:30:04.600Z,28.20
2017-08-14T14:32:32.148Z,28.10
2017-08-14T14:34:59.684Z,28.00
2017-08-14T14:37:27.230Z,27.90
2017-08-14T14:39:55.523Z,28.20
2017-08-14T14:42:23.062Z,28.10
2017-08-14T14:44:51.352Z,27.80
2017-08-14T14:47:19.866Z,27.70
2017-08-14T14:49:47.392Z,27.70
2017-08-14T14:52:15.699Z,27.40
2017-08-14T14:54:43.225Z,27.40
2017-08-14T14:57:10.756Z,27.50
2017-08-14T14:59:38.299Z,27.70
2017-08-14T15:02:05.825Z,27.80
2017-08-14T15:04:33.367Z,27.80
2017-08-14T15:07:01.667Z,27.50
2017-08-14T15:09:29.216Z,27.50
2017-08-14T15:11:56.743Z,27.40
2017-08-14T15:14:24.288Z,27.40
2017-08-14T15:16:51.806Z,27.40
2017-08-14T15:19:19.346Z,27.50
2017-08-14T15:21:46.876Z,27.50
2017-08-14T15:24:14.506Z,27.50
2017-08-14T15:26:42.109Z,27.40
2017-08-14T15:29:09.717Z,27.10
2017-08-14T15:31:37.316Z,26.90
2017-08-14T15:34:04.839Z,27.00
2017-08-14T15:36:33.155Z,27.60
2017-08-14T15:39:00.678Z,27.50
2017-08-14T15:41:28.230Z,27.60
2017-08-14T15:43:55.750Z,27.50
2017-08-14T15:46:23.296Z,27.30
2017-08-14T15:48:50.824Z,27.20
2017-08-14T15:51:19.135Z,27.30
2017-08-14T15:53:47.422Z,27.20
2017-08-14T15:56:15.738Z,27.00
2017-08-14T15:58:43.275Z,27.00
2017-08-14T16:01:10.794Z,27.00
2017-08-14T16:03:38.341Z,26.90
2017-08-14T16:06:05.863Z,26.90
2017-08-14T16:08:33.403Z,26.90
2017-08-14T16:11:00.932Z,26.80
2017-08-14T16:13:28.466Z,26.70
2017-08-14T16:15:55.981Z,26.60
2017-08-14T16:18:23.523Z,26.40
2017-08-14T16:20:51.053Z,26.20
2017-08-14T16:23:18.594Z,26.10
2017-08-14T16:25:46.110Z,26.00
2017-08-14T16:28:14.425Z,25.90
2017-08-14T16:30:42.714Z,25.80
2017-08-14T16:33:11.031Z,25.70
2017-08-14T16:35:38.556Z,25.70
2017-08-14T16:38:06.079Z,25.60
2017-08-14T16:40:34.383Z,25.40
2017-08-14T16:43:01.902Z,25.40
2017-08-14T16:45:29.447Z,25.40
2017-08-14T16:47:56.963Z,25.40
2017-08-14T16:50:24.503Z,25.30
2017-08-14T16:52:52.799Z,25.20
2017-08-14T16:55:20.347Z,25.20
2017-08-14T16:57:47.879Z,25.20
2017-08-14T17:00:15.518Z,25.10
2017-08-14T17:02:43.050Z,24.90
2017-08-14T17:05:10.600Z,24.80
2017-08-14T17:07:38.118Z,24.60
2017-08-14T17:10:05.647Z,24.30
2017-08-14T17:12:33.201Z,24.10
2017-08-14T17:15:00.723Z,23.90
2017-08-14T17:17:28.265Z,23.80
2017-08-14T17:19:56.550Z,23.60
2017-08-14T17:22:24.090Z,23.60
2017-08-14T17:24:51.610Z,23.60
2017-08-14T17:27:19.148Z,23.50
2017-08-14T17:29:47.430Z,23.30
2017-08-14T17:32:14.975Z,23.20
2017-08-14T17:34:43.258Z,22.90
2017-08-14T17:37:11.567Z,22.80
2017-08-14T17:39:39.080Z,22.80
2017-08-14T17:42:06.630Z,22.70
2017-08-14T17:44:34.154Z,22.60
2017-08-14T17:47:01.683Z,22.50
2017-08-14T17:49:29.243Z,22.50
2017-08-14T17:51:56.763Z,22.40
2017-08-14T17:54:24.302Z,22.40
2017-08-14T17:56:51.829Z,22.30
2017-08-14T17:59:19.371Z,22.30
2017-08-14T18:01:47.662Z,22.10
2017-08-14T18:04:15.199Z,22.10
2017-08-14T18:06:42.724Z,22.00
2017-08-14T18:09:10.263Z,21.90
2017-08-14T18:11:37.834Z,21.80
2017-08-14T18:14:05.376Z,21.60
2017-08-14T18:16:32.896Z,21.60
2017-08-14T18:19:00.449Z,21.50
2017-08-14T18:21:27.970Z,21.40
2017-08-14T18:23:55.492Z,21.30
2017-08-14T18:26:23.804Z,21.10
2017-08-14T18:28:51.331Z,21.00
2017-08-14T18:31:19.633Z,20.80
2017-08-14T18:33:47.162Z,20.80
2017-08-14T18:36:15.470Z,20.60
2017-08-14T18:38:42.986Z,20.60
2017-08-14T18:41:10.532Z,20.60
2017-08-14T18:43:38.062Z,20.50
2017-08-14T18:46:05.608Z,20.50
2017-08-14T18:48:33.145Z,20.50
2017-08-14T18:51:00.686Z,20.40
2017-08-14T18:53:28.986Z,20.10
2017-08-14T18:55:57.275Z,20.00
2017-08-14T18:58:24.819Z,19.90
2017-08-14T19:00:53.107Z,19.80
2017-08-14T19:03:20.647Z,19.80
2017-08-14T19:05:48.935Z,19.80
2017-08-14T19:08:19.264Z,19.80
2017-08-14T19:10:44.803Z,19.80
2017-08-14T19:13:12.343Z,19.80
2017-08-14T19:15:39.864Z,19.80
2017-08-14T19:18:07.409Z,19.80
2017-08-14T19:20:34.938Z,19.70
2017-08-14T19:23:02.468Z,19.70
2017-08-14T19:25:30.775Z,19.60
2017-08-14T19:27:58.295Z,19.60
2017-08-14T19:30:26.608Z,19.50
2017-08-14T19:32:54.127Z,19.50
2017-08-14T19:35:21.674Z,19.50
2017-08-14T19:37:49.195Z,19.50
2017-08-14T19:40:16.731Z,19.40
2017-08-14T19:42:44.250Z,19.30
2017-08-14T19:45:12.558Z,19.20
2017-08-14T19:47:40.076Z,19.20
2017-08-14T19:50:07.663Z,19.20
2017-08-14T19:52:35.183Z,19.20
2017-08-14T19:55:03.467Z,19.30
2017-08-14T19:57:31.011Z,19.30
2017-08-14T19:59:58.536Z,19.30
2017-08-14T20:02:26.079Z,19.30
2017-08-14T20:04:53.595Z,19.30
2017-08-14T20:07:21.900Z,19.40
2017-08-14T20:09:49.416Z,19.30
2017-08-14T20:12:16.964Z,19.30
2017-08-14T20:14:45.247Z,19.30
2017-08-14T20:17:13.556Z,19.30
2017-08-14T20:19:41.075Z,19.20
2017-08-14T20:22:09.395Z,19.10
2017-08-14T20:24:36.911Z,19.10
2017-08-14T20:27:05.200Z,19.00
2017-08-14T20:29:32.755Z,19.10
2017-08-14T20:32:01.055Z,19.00
2017-08-14T20:34:28.599Z,19.00
2017-08-14T20:36:56.883Z,18.90
2017-08-14T20:39:24.432Z,18.90
2017-08-14T20:41:52.723Z,18.80
2017-08-14T20:44:20.264Z,18.70
2017-08-14T20:46:48.554Z,18.70
2017-08-14T20:49:16.106Z,18.60
2017-08-14T20:51:44.388Z,18.60
2017-08-14T20:54:11.946Z,18.60
2017-08-14T20:56:40.238Z,18.70
2017-08-14T20:59:07.763Z,18.70
2017-08-14T21:01:35.299Z,18.70
2017-08-14T21:04:02.819Z,18.60
2017-08-14T21:06:30.367Z,18.50
2017-08-14T21:08:57.891Z,18.40
2017-08-14T21:11:25.434Z,18.40
2017-08-14T21:13:52.959Z,18.50
2017-08-14T21:16:20.504Z,18.50
2017-08-14T21:18:48.026Z,18.50
2017-08-14T21:21:15.578Z,18.50
2017-08-14T21:23:43.094Z,18.50
2017-08-14T21:26:10.633Z,18.50
2017-08-14T21:28:38.166Z,18.50
2017-08-14T21:31:05.713Z,18.50
2017-08-14T21:33:33.999Z,18.40
2017-08-14T21:36:01.525Z,18.40
2017-08-14T21:38:29.070Z,18.40
2017-08-14T21:40:56.588Z,18.30
2017-08-14T21:43:24.126Z,18.40
2017-08-14T21:45:52.414Z,18.20
2017-08-14T21:48:19.954Z,18.20
2017-08-14T21:50:47.479Z,18.10
2017-08-14T21:53:15.017Z,18.00
2017-08-14T21:55:42.534Z,17.90
2017-08-14T21:58:10.841Z,17.90
2017-08-14T22:00:38.358Z,17.90
2017-08-14T22:03:05.904Z,17.90
2017-08-14T22:05:33.431Z,17.90
2017-08-14T22:08:00.947Z,17.80
2017-08-14T22:10:28.494Z,17.80
2017-08-14T22:12:56.024Z,17.90
2017-08-14T22:15:23.566Z,17.90
2017-08-14T22:17:51.095Z,17.90
2017-08-14T22:20:19.405Z,17.90
2017-08-14T22:22:46.933Z,17.90
2017-08-14T22:25:14.479Z,17.90
2017-08-14T22:27:42.003Z,17.90
2017-08-14T22:30:10.306Z,17.80
2017-08-14T22:32:37.827Z,17.80
2017-08-14T22:35:05.366Z,17.80
2017-08-14T22:37:32.895Z,17.80
2017-08-14T22:40:00.444Z,17.60
2017-08-14T22:42:28.017Z,17.50
2017-08-14T22:44:55.539Z,17.50
2017-08-14T22:47:23.074Z,17.50
2017-08-14T22:49:51.358Z,17.50
2017-08-14T22:52:19.668Z,17.50
2017-08-14T22:54:47.191Z,17.50
2017-08-14T22:57:15.494Z,17.50
2017-08-14T22:59:43.014Z,17.50
2017-08-14T23:02:10.552Z,17.50
2017-08-14T23:04:38.083Z,17.40
2017-08-14T23:07:05.623Z,17.30
2017-08-14T23:09:33.139Z,17.20
2017-08-14T23:12:00.678Z,17.10
2017-08-14T23:14:28.200Z,17.20
2017-08-14T23:16:55.738Z,17.10
2017-08-14T23:19:24.022Z,17.20
2017-08-14T23:21:52.332Z,17.20
2017-08-14T23:24:19.846Z,17.10
2017-08-14T23:26:48.132Z,17.10
2017-08-14T23:29:16.436Z,17.10
2017-08-14T23:31:43.963Z,17.10
2017-08-14T23:34:11.511Z,17.10
2017-08-14T23:36:39.803Z,17.00
2017-08-14T23:39:08.112Z,17.00
2017-08-14T23:41:35.641Z,17.00
2017-08-14T23:44:03.952Z,17.00
2017-08-14T23:46:31.473Z,17.00
2017-08-14T23:48:59.788Z,16.90
2017-08-14T23:51:27.306Z,16.90
2017-08-14T23:53:55.589Z,16.80
2017-08-14T23:56:23.892Z,16.80
2017-08-14T23:58:51.416Z,16.80
